createdAt,value
2019-04-05T00:00:28.188Z,29.8604
2019-04-05T00:01:31.191Z,29.9306
2019-04-05T00:02:34.188Z,29.9809
2019-04-05T00:03:37.173Z,30.0252
2019-04-05T00:04:40.199Z,29.9992
2019-04-05T00:05:43.197Z,29.9672
2019-04-05T00:06:46.180Z,29.9153
2019-04-05T00:07:49.196Z,29.8848
2019-04-05T00:08:52.179Z,29.9153
2019-04-05T00:09:55.186Z,29.9535
2019-04-05T00:10:58.201Z,29.9153
2019-04-05T00:12:01.187Z,29.9855
2019-04-05T00:13:04.197Z,29.9306
2019-04-05T00:14:07.178Z,29.9840
2019-04-05T00:15:15.579Z,29.9306
2019-04-05T00:16:19.184Z,29.9672
2019-04-05T00:17:22.197Z,29.9992
2019-04-05T00:18:25.177Z,29.9565
2019-04-05T00:19:28.175Z,30.0404
2019-04-05T00:20:31.181Z,30.0542
2019-04-05T00:21:34.205Z,29.9977
2019-04-05T00:22:37.176Z,29.8878
2019-04-05T00:23:40.176Z,29.9672
2019-04-05T00:24:43.179Z,29.9565
2019-04-05T00:25:46.185Z,29.9535
2019-04-05T00:26:49.198Z,29.9809
2019-04-05T00:27:52.189Z,29.9794
2019-04-05T00:28:55.204Z,29.9565
2019-04-05T00:29:58.181Z,29.9672
2019-04-05T00:31:01.201Z,29.8802
2019-04-05T00:32:04.201Z,29.9840
2019-04-05T00:33:07.176Z,29.9992
2019-04-05T00:34:10.201Z,30.0435
2019-04-05T00:35:13.186Z,29.8970
2019-04-05T00:36:16.189Z,30.0679
2019-04-05T00:37:19.200Z,30.0526
2019-04-05T00:38:22.172Z,29.9977
2019-04-05T00:39:25.178Z,29.9992
2019-04-05T00:40:28.178Z,29.9977
2019-04-05T00:41:33.011Z,29.9672
2019-04-05T00:42:36.184Z,30.0252
2019-04-05T00:43:39.196Z,29.9535
2019-04-05T00:44:42.200Z,30.0633
2019-04-05T00:45:45.180Z,30.0084
2019-04-05T00:46:48.196Z,29.9519
2019-04-05T00:47:51.182Z,29.9794
2019-04-05T00:48:54.183Z,30.0084
2019-04-05T00:49:57.182Z,29.9657
2019-04-05T00:51:00.179Z,30.1366
2019-04-05T00:52:03.188Z,29.9672
2019-04-05T00:53:06.195Z,29.9947
2019-04-05T00:54:09.200Z,29.9809
2019-04-05T00:55:12.178Z,29.9382
2019-04-05T00:56:15.183Z,29.9794
2019-04-05T00:57:18.188Z,29.9260
2019-04-05T00:58:21.207Z,29.9794
2019-04-05T00:59:24.175Z,29.8970
2019-04-05T01:00:27.193Z,29.9260
2019-04-05T01:01:30.182Z,29.9336
2019-04-05T01:02:33.200Z,30.0252
2019-04-05T01:03:36.185Z,29.9214
2019-04-05T01:04:39.195Z,29.9809
2019-04-05T01:05:42.180Z,30.0038
2019-04-05T01:06:45.182Z,29.9931
2019-04-05T01:07:48.200Z,29.9077
2019-04-05T01:08:51.187Z,29.9245
2019-04-05T01:09:54.231Z,29.9763
2019-04-05T01:10:57.184Z,30.0069
2019-04-05T01:12:00.193Z,30.0343
2019-04-05T01:13:03.219Z,30.0038
2019-04-05T01:14:06.181Z,29.9626
2019-04-05T01:15:09.206Z,30.0206
2019-04-05T01:16:12.182Z,30.0038
2019-04-05T01:17:24.511Z,30.0343
2019-04-05T01:18:24.206Z,29.9489
2019-04-05T01:19:27.181Z,29.8802
2019-04-05T01:20:30.191Z,30.0450
2019-04-05T01:21:33.200Z,30.1045
2019-04-05T01:22:36.187Z,29.9763
2019-04-05T01:23:39.204Z,29.9199
2019-04-05T01:24:42.186Z,29.9077
2019-04-05T01:25:45.189Z,30.0069
2019-04-05T01:26:48.189Z,29.9886
2019-04-05T01:27:51.198Z,30.0481
2019-04-05T01:28:54.188Z,29.9748
2019-04-05T01:29:57.198Z,29.9611
2019-04-05T01:31:00.192Z,29.9077
2019-04-05T01:32:03.176Z,30.0206
2019-04-05T01:33:06.186Z,30.0160
2019-04-05T01:34:09.196Z,30.0313
2019-04-05T01:35:12.178Z,29.9199
2019-04-05T01:36:15.196Z,30.0206
2019-04-05T01:37:18.172Z,30.1991
2019-04-05T01:38:21.201Z,30.0450
2019-04-05T01:39:24.195Z,30.0343
2019-04-05T01:40:27.196Z,30.0618
2019-04-05T01:41:30.183Z,30.0313
2019-04-05T01:42:33.181Z,29.9489
2019-04-05T01:43:36.183Z,30.0313
2019-04-05T01:44:39.188Z,30.0862
2019-04-05T01:45:52.980Z,30.0862
2019-04-05T01:46:51.190Z,30.0862
2019-04-05T01:47:54.175Z,30.0023
2019-04-05T01:48:57.182Z,30.0023
2019-04-05T01:50:00.185Z,29.9886
2019-04-05T01:51:03.191Z,30.0862
2019-04-05T01:52:06.170Z,30.0298
2019-04-05T01:53:09.196Z,30.0450
2019-04-05T01:54:12.174Z,30.0847
2019-04-05T01:55:15.203Z,30.0343
2019-04-05T01:56:18.188Z,29.9580
2019-04-05T01:57:21.193Z,29.9580
2019-04-05T01:58:24.186Z,30.0298
2019-04-05T01:59:27.195Z,30.0313
2019-04-05T02:00:30.178Z,30.0175
2019-04-05T02:01:33.190Z,30.1595
2019-04-05T02:02:36.182Z,30.0175
2019-04-05T02:03:39.181Z,30.0298
2019-04-05T02:04:42.176Z,30.0267
2019-04-05T02:05:52.179Z,29.9977
2019-04-05T02:06:55.198Z,30.0847
2019-04-05T02:07:58.256Z,30.0984
2019-04-05T02:09:01.185Z,30.0587
2019-04-05T02:10:04.198Z,30.0710
2019-04-05T02:11:07.178Z,30.0847
2019-04-05T02:12:10.177Z,30.0725
2019-04-05T02:13:13.206Z,30.0587
2019-04-05T02:14:16.188Z,30.0755
2019-04-05T02:15:46.387Z,30.1854
2019-04-05T02:16:49.199Z,30.0267
2019-04-05T02:17:52.193Z,30.1961
2019-04-05T02:18:55.175Z,30.2129
2019-04-05T02:19:58.185Z,30.1122
2019-04-05T02:21:01.191Z,30.0862
2019-04-05T02:22:04.207Z,30.0755
2019-04-05T02:23:07.197Z,30.0984
2019-04-05T02:24:10.184Z,30.0298
2019-04-05T02:25:13.193Z,30.0298
2019-04-05T02:26:16.184Z,30.0267
2019-04-05T02:27:19.191Z,29.9977
2019-04-05T02:28:22.173Z,30.1259
2019-04-05T02:29:25.186Z,30.0526
2019-04-05T02:30:28.197Z,30.1411
2019-04-05T02:31:31.208Z,30.0526
2019-04-05T02:32:34.205Z,30.2220
2019-04-05T02:33:37.191Z,30.0954
2019-04-05T02:34:40.200Z,30.0801
2019-04-05T02:35:43.192Z,30.0526
2019-04-05T02:36:46.201Z,30.1503
2019-04-05T02:37:49.193Z,30.1228
2019-04-05T02:38:52.208Z,30.1534
2019-04-05T02:39:55.182Z,30.1503
2019-04-05T02:40:58.974Z,29.9931
2019-04-05T02:42:02.204Z,30.1640
2019-04-05T02:43:05.190Z,30.0664
2019-04-05T02:44:08.197Z,30.1396
2019-04-05T02:45:11.185Z,30.0664
2019-04-05T02:46:23.576Z,30.1228
2019-04-05T02:47:23.202Z,30.0526
2019-04-05T02:48:26.188Z,30.0252
2019-04-05T02:49:29.183Z,30.0496
2019-04-05T02:50:32.208Z,30.0252
2019-04-05T02:51:35.193Z,30.0664
2019-04-05T02:52:38.207Z,29.9672
2019-04-05T02:53:41.197Z,30.1808
2019-04-05T02:54:44.180Z,30.2083
2019-04-05T02:55:47.186Z,30.2052
2019-04-05T02:56:50.193Z,30.0252
2019-04-05T02:57:53.196Z,29.9931
2019-04-05T02:58:56.204Z,30.0908
2019-04-05T02:59:59.191Z,30.0664
2019-04-05T03:01:02.184Z,30.0496
2019-04-05T03:02:05.190Z,30.0496
2019-04-05T03:03:08.219Z,29.9901
2019-04-05T03:04:11.208Z,30.0496
2019-04-05T03:05:14.217Z,30.0664
2019-04-05T03:06:17.185Z,30.1350
2019-04-05T03:07:20.212Z,30.0496
2019-04-05T03:08:23.199Z,30.0938
2019-04-05T03:09:26.225Z,30.0359
2019-04-05T03:10:29.195Z,30.0496
2019-04-05T03:11:32.203Z,30.0221
2019-04-05T03:12:35.187Z,30.0359
2019-04-05T03:13:38.217Z,30.0755
2019-04-05T03:14:41.187Z,30.0908
2019-04-05T03:15:44.188Z,30.0664
2019-04-05T03:16:47.203Z,30.0771
2019-04-05T03:17:50.187Z,30.1030
2019-04-05T03:18:53.196Z,30.1457
2019-04-05T03:19:56.176Z,30.1457
2019-04-05T03:20:59.187Z,30.0313
2019-04-05T03:22:02.193Z,30.0938
2019-04-05T03:23:05.199Z,30.0343
2019-04-05T03:24:08.200Z,30.0069
2019-04-05T03:25:11.187Z,30.1213
2019-04-05T03:26:14.194Z,30.0313
2019-04-05T03:27:17.195Z,30.1213
2019-04-05T03:28:20.186Z,30.1595
2019-04-05T03:29:23.210Z,30.1045
2019-04-05T03:30:26.190Z,30.0755
2019-04-05T03:31:29.214Z,30.1366
2019-04-05T03:32:32.221Z,30.1457
2019-04-05T03:33:35.253Z,30.1183
2019-04-05T03:34:38.182Z,30.1045
2019-04-05T03:35:41.194Z,30.1183
2019-04-05T03:36:44.200Z,30.1045
2019-04-05T03:37:47.201Z,30.1457
2019-04-05T03:38:50.242Z,30.1320
2019-04-05T03:39:53.186Z,30.1869
2019-04-05T03:40:56.218Z,30.1442
2019-04-05T03:41:59.184Z,30.0908
2019-04-05T03:43:02.209Z,30.2327
2019-04-05T03:44:05.200Z,30.1030
2019-04-05T03:45:08.192Z,30.1030
2019-04-05T03:46:11.199Z,30.1030
2019-04-05T03:47:14.213Z,30.1625
2019-04-05T03:48:17.215Z,30.1625
2019-04-05T03:49:20.189Z,30.1595
2019-04-05T03:50:23.204Z,30.1030
2019-04-05T03:51:26.194Z,30.1228
2019-04-05T03:52:29.189Z,30.1457
2019-04-05T03:53:32.200Z,30.1778
2019-04-05T03:54:35.206Z,30.1320
2019-04-05T03:55:38.219Z,30.1457
2019-04-05T03:56:41.193Z,30.2327
2019-04-05T03:57:44.189Z,30.1778
2019-04-05T03:58:47.214Z,30.1900
2019-04-05T03:59:50.183Z,30.1045
2019-04-05T04:00:53.188Z,30.1900
2019-04-05T04:01:56.203Z,30.2602
2019-04-05T04:02:59.189Z,30.2770
2019-04-05T04:04:02.205Z,30.1900
2019-04-05T04:05:05.195Z,30.3044
2019-04-05T04:06:08.197Z,30.3059
2019-04-05T04:07:11.252Z,30.1625
2019-04-05T04:08:14.213Z,30.2510
2019-04-05T04:09:17.199Z,30.1640
2019-04-05T04:10:20.209Z,30.2358
2019-04-05T04:11:23.197Z,30.1762
2019-04-05T04:12:26.207Z,30.2495
2019-04-05T04:13:29.204Z,30.2770
2019-04-05T04:14:32.189Z,30.2495
2019-04-05T04:15:35.189Z,30.2174
2019-04-05T04:16:38.197Z,30.2602
2019-04-05T04:17:41.185Z,30.2052
2019-04-05T04:18:44.213Z,30.2739
2019-04-05T04:19:47.210Z,30.2037
2019-04-05T04:20:50.196Z,30.2083
2019-04-05T04:21:53.196Z,30.2312
2019-04-05T04:22:56.197Z,30.1869
2019-04-05T04:23:59.207Z,30.3319
2019-04-05T04:25:02.195Z,30.2876
2019-04-05T04:26:05.182Z,30.2785
2019-04-05T04:27:08.197Z,30.3609
2019-04-05T04:28:11.183Z,30.3014
2019-04-05T04:29:14.201Z,30.2770
2019-04-05T04:30:17.184Z,30.3319
2019-04-05T04:31:20.200Z,30.2190
2019-04-05T04:32:23.199Z,30.1915
2019-04-05T04:33:26.204Z,30.2174
2019-04-05T04:34:29.177Z,30.1778
2019-04-05T04:35:32.189Z,30.8354
2019-04-05T04:36:35.213Z,30.5348
2019-04-05T04:37:38.194Z,30.4784
2019-04-05T04:38:41.186Z,30.3777
2019-04-05T04:39:44.207Z,30.9789
2019-04-05T04:40:47.190Z,30.5516
2019-04-05T04:41:50.214Z,30.3105
2019-04-05T04:42:53.255Z,30.3792
2019-04-05T04:43:56.199Z,30.3227
2019-04-05T04:45:11.286Z,30.3655
2019-04-05T04:46:08.198Z,30.4372
2019-04-05T04:47:25.016Z,30.4967
2019-04-05T04:48:20.205Z,30.9102
2019-04-05T04:49:23.179Z,30.6798
2019-04-05T04:50:26.189Z,30.6081
2019-04-05T04:51:29.181Z,30.7362
2019-04-05T04:52:32.188Z,31.0826
2019-04-05T04:53:35.190Z,30.9194
2019-04-05T04:54:38.199Z,30.9926
2019-04-05T04:55:41.186Z,31.1391
2019-04-05T04:56:44.222Z,31.1208
2019-04-05T04:57:47.218Z,31.2657
2019-04-05T04:58:50.184Z,31.2215
2019-04-05T04:59:53.194Z,31.3222
2019-04-05T05:00:56.208Z,31.4397
2019-04-05T05:01:59.216Z,31.3802
2019-04-05T05:03:02.193Z,31.5099
2019-04-05T05:04:08.107Z,31.3527
2019-04-05T05:05:11.197Z,31.3802
2019-04-05T05:06:14.194Z,31.2993
2019-04-05T05:07:17.206Z,31.3268
2019-04-05T05:08:20.181Z,31.3527
2019-04-05T05:09:23.189Z,31.3817
2019-04-05T05:10:26.187Z,31.2840
2019-04-05T05:11:29.193Z,31.2154
2019-04-05T05:12:32.196Z,31.2718
2019-04-05T05:13:35.199Z,31.2612
2019-04-05T05:14:38.186Z,31.0430
2019-04-05T05:15:41.186Z,30.8324
2019-04-05T05:16:44.181Z,30.9224
2019-04-05T05:17:58.038Z,30.9056
2019-04-05T05:18:56.190Z,31.1055
2019-04-05T05:19:59.197Z,30.8370
2019-04-05T05:21:02.178Z,31.0368
2019-04-05T05:22:05.188Z,30.8919
2019-04-05T05:23:08.179Z,30.6935
2019-04-05T05:24:11.231Z,30.8492
2019-04-05T05:25:14.187Z,30.6355
2019-04-05T05:26:17.196Z,30.5623
2019-04-05T05:27:20.188Z,31.0048
2019-04-05T05:28:23.181Z,31.6411
2019-04-05T05:29:26.179Z,32.1874
2019-04-05T05:30:29.260Z,32.3003
2019-04-05T05:31:32.191Z,34.1421
2019-04-05T05:32:35.183Z,33.6645
2019-04-05T05:33:38.209Z,34.2565
2019-04-05T05:34:41.193Z,32.8557
2019-04-05T05:35:44.197Z,33.8704
2019-04-05T05:36:47.200Z,31.9707
2019-04-05T05:37:50.202Z,34.0139
2019-04-05T05:38:53.205Z,32.7138
2019-04-05T05:39:56.197Z,34.6716
2019-04-05T05:40:59.187Z,33.7652
2019-04-05T05:42:02.202Z,34.0902
2019-04-05T05:43:05.206Z,33.9025
2019-04-05T05:44:08.191Z,33.4600
2019-04-05T05:45:11.198Z,33.0434
2019-04-05T05:46:14.204Z,32.8008
2019-04-05T05:47:17.198Z,32.6268
2019-04-05T05:48:20.250Z,32.4849
2019-04-05T05:49:23.200Z,32.1187
2019-04-05T05:50:26.183Z,31.9768
2019-04-05T05:51:29.192Z,31.8486
2019-04-05T05:52:32.208Z,31.6014
2019-04-05T05:53:35.195Z,31.5145
2019-04-05T05:54:38.189Z,31.4458
2019-04-05T05:55:41.183Z,31.3069
2019-04-05T05:56:44.186Z,31.3619
2019-04-05T05:57:47.192Z,31.3344
2019-04-05T05:58:50.199Z,31.2474
2019-04-05T05:59:53.179Z,31.2657
2019-04-05T06:00:56.187Z,31.1666
2019-04-05T06:01:59.200Z,31.2078
2019-04-05T06:03:02.201Z,31.1757
2019-04-05T06:04:05.191Z,31.1528
2019-04-05T06:05:08.198Z,31.1620
2019-04-05T06:06:11.182Z,31.2062
2019-04-05T06:07:14.193Z,31.1650
2019-04-05T06:08:17.177Z,31.0613
2019-04-05T06:09:20.185Z,31.0643
2019-04-05T06:10:23.209Z,30.9514
2019-04-05T06:11:26.194Z,31.0368
2019-04-05T06:12:29.179Z,30.9651
2019-04-05T06:13:32.187Z,30.9102
2019-04-05T06:14:35.214Z,30.8644
2019-04-05T06:15:38.199Z,30.7958
2019-04-05T06:16:46.590Z,30.8080
2019-04-05T06:17:50.183Z,30.7851
2019-04-05T06:18:53.197Z,30.8095
2019-04-05T06:19:56.190Z,30.6981
2019-04-05T06:20:59.207Z,30.7134
2019-04-05T06:22:02.188Z,30.6813
2019-04-05T06:23:05.177Z,30.7271
2019-04-05T06:24:08.193Z,30.5852
2019-04-05T06:25:11.189Z,30.5608
2019-04-05T06:26:14.225Z,30.4616
2019-04-05T06:27:17.192Z,30.6340
2019-04-05T06:28:20.185Z,30.5470
2019-04-05T06:29:23.189Z,30.6767
2019-04-05T06:30:28.748Z,30.4616
2019-04-05T06:31:32.188Z,30.4479
2019-04-05T06:32:35.180Z,30.6218
2019-04-05T06:33:38.179Z,30.5074
2019-04-05T06:34:41.191Z,30.4616
2019-04-05T06:35:44.207Z,30.3517
2019-04-05T06:36:47.187Z,30.3746
2019-04-05T06:37:50.206Z,30.4372
2019-04-05T06:38:53.198Z,30.4234
2019-04-05T06:39:56.257Z,30.4463
2019-04-05T06:40:59.182Z,30.5791
2019-04-05T06:42:02.209Z,30.2953
2019-04-05T06:43:06.803Z,30.3090
2019-04-05T06:44:10.187Z,30.3197
2019-04-05T06:45:13.190Z,30.2785
2019-04-05T06:46:16.201Z,30.1823
2019-04-05T06:47:19.185Z,30.2358
2019-04-05T06:48:22.202Z,30.1915
2019-04-05T06:49:25.188Z,29.9657
2019-04-05T06:50:28.184Z,30.0984
2019-04-05T06:51:31.201Z,29.9947
2019-04-05T06:52:34.175Z,30.1961
2019-04-05T06:53:37.196Z,30.1366
2019-04-05T06:54:40.176Z,30.5394
2019-04-05T06:55:43.184Z,30.1854
2019-04-05T06:56:46.208Z,30.3700
2019-04-05T06:57:49.208Z,30.2037
2019-04-05T06:58:52.205Z,30.3151
2019-04-05T06:59:55.195Z,32.0760
2019-04-05T07:00:58.194Z,30.0542
2019-04-05T07:02:01.187Z,29.6864
2019-04-05T07:03:04.191Z,29.8558
2019-04-05T07:49:39.828Z,29.7139
2019-04-05T07:50:40.803Z,28.4291
2019-04-05T07:51:41.806Z,29.1279
2019-04-05T07:52:42.830Z,29.3904
2019-04-05T07:53:43.804Z,29.7322
2019-04-05T07:54:44.821Z,30.0893
2019-04-05T07:55:45.798Z,29.5628
2019-04-05T07:56:46.805Z,29.3996
2019-04-05T07:57:47.823Z,29.8436
2019-04-05T07:58:48.848Z,29.8650
2019-04-05T07:59:49.827Z,28.8579
2019-04-05T08:00:50.800Z,28.5573
2019-04-05T08:01:51.813Z,28.6656
2019-04-05T08:02:52.813Z,28.4474
2019-04-05T08:03:53.799Z,28.5969
2019-04-05T08:04:54.848Z,28.4092
2019-04-05T08:05:55.814Z,28.5100
2019-04-05T08:06:56.823Z,28.4199
2019-04-05T08:07:57.851Z,28.4184
2019-04-05T08:08:58.824Z,28.7175
2019-04-05T08:10:03.030Z,28.4108
2019-04-05T08:11:03.838Z,28.8441
2019-04-05T08:12:04.815Z,29.4667
2019-04-05T08:13:05.815Z,29.2988
2019-04-05T08:14:06.835Z,29.2897
2019-04-05T08:15:07.825Z,29.4347
2019-04-05T08:16:08.803Z,29.4453
2019-04-05T08:17:09.838Z,29.4820
2019-04-05T08:18:10.850Z,29.3492
2019-04-05T08:19:11.811Z,29.3477
2019-04-05T08:20:12.807Z,29.3126
2019-04-05T08:21:13.807Z,29.3477
2019-04-05T09:02:06.857Z,29.6193
2019-04-05T09:03:07.818Z,29.2149
2019-04-05T09:04:08.873Z,29.1478
2019-04-05T09:05:09.881Z,29.2332
2019-04-05T09:06:10.835Z,29.0913
2019-04-05T09:07:11.846Z,29.2164
2019-04-05T09:08:07.833Z,29.3767
2019-04-05T09:09:08.826Z,29.3797
2019-04-05T09:10:09.806Z,29.3385
2019-04-05T09:11:10.819Z,29.3660
2019-04-05T09:12:11.827Z,29.4118
2019-04-05T09:13:13.847Z,29.3950
2019-04-05T09:14:14.813Z,29.4682
2019-04-05T09:15:15.808Z,29.8009
2019-04-05T09:16:16.824Z,29.4087
2019-04-05T09:17:17.837Z,29.3263
2019-04-05T09:18:18.821Z,29.4438
2019-04-05T09:19:23.818Z,29.3721
2019-04-05T09:20:24.813Z,29.5445
2019-04-05T09:21:25.826Z,29.3431
2019-04-05T09:22:26.851Z,29.2988
2019-04-05T09:23:27.809Z,29.3706
2019-04-05T09:24:28.805Z,29.3721
2019-04-05T09:25:20.830Z,29.3935
2019-04-05T09:26:21.817Z,29.3568
2019-04-05T09:27:22.825Z,29.3614
2019-04-05T09:28:23.891Z,29.3172
2019-04-05T09:29:24.816Z,29.3858
2019-04-05T09:30:25.824Z,29.3065
2019-04-05T09:31:26.830Z,29.3156
2019-04-05T09:32:27.812Z,29.3614
2019-04-05T09:33:28.853Z,29.3477
2019-04-05T09:34:29.823Z,29.3751
2019-04-05T09:35:30.822Z,29.3339
2019-04-05T09:36:31.817Z,29.3904
2019-04-05T09:37:32.842Z,29.3675
2019-04-05T09:38:33.823Z,29.4713
2019-04-05T09:39:34.829Z,29.4896
2019-04-05T09:40:35.826Z,29.5415
2019-04-05T09:41:36.825Z,29.5171
2019-04-05T09:42:37.840Z,29.4865
2019-04-05T09:43:38.846Z,29.5308
2019-04-05T09:44:39.851Z,29.5186
2019-04-05T09:45:40.830Z,29.5415
2019-04-05T09:46:48.129Z,29.5583
2019-04-05T09:47:48.863Z,29.5857
2019-04-05T09:48:49.837Z,29.6178
2019-04-05T09:49:50.857Z,29.5460
2019-04-05T09:50:51.849Z,29.4759
2019-04-05T09:51:52.814Z,29.3950
2019-04-05T09:52:54.862Z,29.6910
2019-04-05T11:04:46.882Z,29.0105
2019-04-05T11:05:49.423Z,33.0755
2019-04-05T11:06:51.861Z,29.6101
2019-04-05T11:07:53.891Z,29.1508
2019-04-05T11:08:55.855Z,95.3109
2019-04-05T11:11:22.888Z,28.9555
2019-04-05T11:12:24.896Z,28.6305
2019-04-05T11:13:26.880Z,28.9860
2019-04-05T12:12:12.832Z,63.0884
2019-04-05T12:13:14.312Z,61.3016
2019-04-05T12:14:29.313Z,61.1048
2019-04-05T12:15:24.193Z,62.9633
2019-04-05T12:16:29.318Z,61.3840
2019-04-05T12:17:35.006Z,61.6281
2019-04-05T12:18:38.189Z,62.1820
2019-04-05T12:19:41.227Z,59.8932
2019-04-05T12:20:49.721Z,59.7498
2019-04-05T12:21:54.202Z,61.2207
2019-04-05T12:22:57.227Z,61.8921
2019-04-05T12:24:00.520Z,60.8530
2019-04-05T12:25:05.199Z,63.2212
2019-04-05T12:26:08.181Z,58.0575
2019-04-05T12:27:11.197Z,59.6078
2019-04-05T12:28:14.207Z,59.4995
2019-04-05T12:29:17.197Z,60.3052
2019-04-05T12:30:20.205Z,58.6664
2019-04-05T12:31:23.197Z,59.9329
2019-04-05T12:32:33.384Z,59.6277
2019-04-05T12:33:35.252Z,58.1384
2019-04-05T12:34:38.212Z,59.7467
2019-04-05T12:35:41.194Z,60.9415
2019-04-05T12:36:44.196Z,62.5895
2019-04-05T12:37:50.988Z,60.9216
2019-04-05T12:38:58.215Z,61.3947
2019-04-05T12:40:01.234Z,62.7985
2019-04-05T12:41:04.267Z,62.2171
2019-04-05T12:42:07.217Z,63.5370
2019-04-05T12:43:13.227Z,62.4933
2019-04-05T12:44:17.191Z,65.4719
2019-04-05T12:45:20.200Z,64.8310
2019-04-05T12:46:23.290Z,64.5792
2019-04-05T12:47:26.188Z,64.1047
2019-04-05T12:48:29.180Z,63.6057
2019-04-05T12:49:32.190Z,63.9307
2019-04-05T12:50:36.004Z,65.0187
2019-04-05T12:51:39.189Z,64.5075
2019-04-05T12:52:42.201Z,62.8717
2019-04-05T12:53:45.203Z,63.8148
2019-04-05T12:54:50.551Z,65.9709
2019-04-05T12:55:56.988Z,64.0620
2019-04-05T12:57:00.183Z,65.3986
2019-04-05T12:58:03.225Z,63.2746
2019-04-05T12:59:06.214Z,64.5884
2019-04-05T13:00:09.203Z,61.2970
2019-04-05T13:01:13.030Z,62.6932
2019-04-05T13:02:20.645Z,64.0711
2019-04-05T13:03:24.429Z,64.0452
2019-04-05T13:04:27.180Z,65.4551
2019-04-05T13:05:31.247Z,65.2796
2019-04-05T13:06:34.236Z,66.3203
2019-04-05T13:07:37.194Z,64.8966
2019-04-05T13:08:40.193Z,65.1377
2019-04-05T13:09:45.680Z,63.2212
2019-04-05T13:10:48.323Z,62.7497
2019-04-05T13:11:51.214Z,61.3565
2019-04-05T13:12:57.804Z,62.3514
2019-04-05T13:14:03.220Z,63.5920
2019-04-05T13:15:13.827Z,61.8341
2019-04-05T13:16:14.193Z,62.7497
2019-04-05T13:17:18.938Z,63.7751
2019-04-05T13:18:24.957Z,64.3702
2019-04-05T13:19:28.532Z,63.1189
2019-04-05T13:20:33.195Z,62.0020
2019-04-05T13:21:36.192Z,63.8285
2019-04-05T13:22:38.192Z,65.6153
2019-04-05T13:23:40.182Z,63.5721
2019-04-05T13:24:43.197Z,61.8524
2019-04-05T13:25:46.224Z,62.5147
2019-04-05T13:26:49.197Z,63.2303
2019-04-05T13:27:52.188Z,61.0132
2019-04-05T13:28:55.183Z,64.9958
2019-04-05T13:29:58.222Z,62.8626
2019-04-05T13:31:01.193Z,62.2461
2019-04-05T13:32:04.198Z,66.1357
2019-04-05T13:33:07.192Z,63.0243
2019-04-05T13:34:09.183Z,63.8697
2019-04-05T13:35:12.389Z,63.7232
2019-04-05T13:36:16.276Z,64.7074
2019-04-05T13:37:20.406Z,62.8260
2019-04-05T13:38:23.224Z,62.0340
2019-04-05T13:39:29.414Z,63.9673
2019-04-05T13:40:32.405Z,60.2136
2019-04-05T13:41:35.189Z,62.8397
2019-04-05T13:42:38.216Z,61.0361
2019-04-05T13:43:41.200Z,63.0976
2019-04-05T13:44:44.223Z,61.9577
2019-04-05T13:45:47.253Z,61.5946
2019-04-05T13:46:50.225Z,60.5158
2019-04-05T13:47:53.169Z,63.3860
2019-04-05T13:48:56.215Z,63.4501
2019-04-05T13:49:59.218Z,61.0178
2019-04-05T13:51:02.188Z,63.3524
2019-04-05T13:52:06.552Z,62.9541
2019-04-05T13:53:11.106Z,62.1073
2019-04-05T13:54:14.200Z,63.5859
2019-04-05T13:55:17.193Z,61.6510
2019-04-05T13:56:20.193Z,62.1683
2019-04-05T13:57:23.193Z,62.1256
2019-04-05T13:58:26.183Z,63.3249
2019-04-05T13:59:29.220Z,62.5330
2019-04-05T14:00:32.205Z,63.3982
2019-04-05T14:01:35.217Z,62.7451
2019-04-05T14:02:37.188Z,64.0299
2019-04-05T14:03:39.219Z,61.2512
2019-04-05T14:04:42.181Z,61.7426
2019-04-05T14:05:44.188Z,62.4338
2019-04-05T14:06:47.174Z,62.2034
2019-04-05T14:07:50.177Z,62.5788
2019-04-05T14:08:53.196Z,60.7401
2019-04-05T14:09:56.215Z,61.1276
2019-04-05T14:10:59.191Z,61.3336
2019-04-05T14:12:02.193Z,61.6602
2019-04-05T14:13:05.202Z,59.7787
2019-04-05T14:14:11.817Z,61.0285
2019-04-05T14:15:14.247Z,62.5925
2019-04-05T14:16:17.207Z,61.3016
2019-04-05T14:17:20.277Z,59.9374
2019-04-05T14:18:23.182Z,59.2004
2019-04-05T14:19:28.684Z,60.1389
2019-04-05T14:20:32.210Z,60.4654
2019-04-05T14:21:40.905Z,58.6831
2019-04-05T14:22:43.190Z,57.5677
2019-04-05T14:23:45.194Z,57.5891
2019-04-05T14:24:48.223Z,58.2544
2019-04-05T14:25:51.220Z,58.8251
2019-04-05T14:26:54.184Z,59.7009
2019-04-05T14:27:57.214Z,61.0605
2019-04-05T14:29:03.449Z,61.0834
2019-04-05T14:30:06.204Z,61.7014
2019-04-05T14:31:08.210Z,60.7858
2019-04-05T14:32:20.362Z,58.2910
2019-04-05T14:33:19.201Z,58.0987
2019-04-05T14:34:23.682Z,58.9487
2019-04-05T14:35:27.171Z,59.4385
2019-04-05T14:36:30.171Z,58.8937
2019-04-05T14:37:33.203Z,56.0479
2019-04-05T14:38:36.192Z,57.2610
2019-04-05T14:39:39.191Z,57.6318
2019-04-05T14:40:42.192Z,57.5677
2019-04-05T14:41:47.048Z,56.9451
2019-04-05T14:42:50.177Z,58.2574
2019-04-05T14:43:53.200Z,59.9710
2019-04-05T14:44:56.211Z,59.2844
2019-04-05T14:45:59.181Z,61.2116
2019-04-05T14:47:02.177Z,58.8113
2019-04-05T14:48:04.215Z,59.3530
2019-04-05T14:49:07.194Z,59.3759
2019-04-05T14:50:10.183Z,59.6033
2019-04-05T14:51:13.204Z,60.8667
2019-04-05T14:52:17.073Z,60.7492
2019-04-05T14:53:21.069Z,59.7147
2019-04-05T14:54:24.196Z,58.6206
2019-04-05T14:55:29.460Z,58.8220
2019-04-05T14:56:32.189Z,58.6572
2019-04-05T14:57:36.534Z,59.2615
2019-04-05T14:58:39.190Z,58.4817
2019-04-05T14:59:42.180Z,58.8037
2019-04-05T15:00:47.155Z,58.4817
2019-04-05T15:01:51.203Z,59.2142
2019-04-05T15:02:54.209Z,60.0580
2019-04-05T15:03:57.193Z,59.0829
2019-04-05T15:05:00.202Z,58.9761
2019-04-05T15:06:03.190Z,60.4791
2019-04-05T15:07:06.213Z,59.9512
2019-04-05T15:08:09.183Z,60.3403
2019-04-05T15:09:12.195Z,62.4048
2019-04-05T15:10:16.230Z,59.7787
2019-04-05T15:11:19.171Z,58.8159
2019-04-05T15:12:21.177Z,60.0107
2019-04-05T15:13:26.232Z,60.0259
2019-04-05T15:14:28.188Z,59.3851
2019-04-05T15:15:31.176Z,58.4680
2019-04-05T15:16:34.200Z,58.8891
2019-04-05T15:17:48.019Z,59.7147
2019-04-05T15:18:48.236Z,61.4359
2019-04-05T15:19:51.192Z,61.4664
2019-04-05T15:20:54.188Z,61.2848
2019-04-05T15:22:05.690Z,60.3952
2019-04-05T15:23:05.190Z,59.5895
2019-04-05T15:24:09.226Z,60.7538
2019-04-05T15:25:11.172Z,64.2512
2019-04-05T15:26:15.223Z,60.1755
2019-04-05T15:27:21.335Z,59.0738
2019-04-05T15:28:24.571Z,58.1811
2019-04-05T15:29:30.220Z,58.1262
2019-04-05T15:30:35.213Z,57.0260
2019-04-05T15:31:38.194Z,57.9232
2019-04-05T15:32:41.193Z,60.4089
2019-04-05T15:33:44.174Z,58.6465
2019-04-05T15:34:47.203Z,57.9919
2019-04-05T15:35:50.192Z,58.1888
2019-04-05T15:36:53.196Z,58.0163
2019-04-05T15:37:56.181Z,59.5911
2019-04-05T15:39:01.123Z,59.6216
2019-04-05T15:40:04.191Z,59.7833
2019-04-05T15:41:07.170Z,59.8459
2019-04-05T15:42:12.211Z,59.7971
2019-04-05T15:43:15.175Z,59.9466
2019-04-05T15:44:17.181Z,59.1058
2019-04-05T15:45:20.182Z,59.5407
2019-04-05T15:46:23.202Z,59.4980
2019-04-05T15:47:26.190Z,59.5621
2019-04-05T15:48:29.196Z,59.9252
2019-04-05T15:49:32.223Z,57.2961
2019-04-05T15:50:37.205Z,58.5657
2019-04-05T15:51:42.226Z,57.9232
2019-04-05T15:52:45.200Z,60.3998
2019-04-05T15:53:49.256Z,59.1134
2019-04-05T15:54:55.735Z,59.0356
2019-04-05T15:55:58.176Z,58.9029
2019-04-05T15:57:01.455Z,58.3459
2019-04-05T15:58:06.183Z,60.1755
2019-04-05T15:59:33.308Z,58.0331
2019-04-05T16:00:36.188Z,57.9736
2019-04-05T16:01:39.203Z,58.2177
2019-04-05T16:02:43.108Z,57.8790
2019-04-05T16:03:46.169Z,60.1724
2019-04-05T16:04:49.191Z,58.9227
2019-04-05T16:05:52.214Z,58.0621
2019-04-05T16:06:56.078Z,57.8820
2019-04-05T16:08:00.241Z,58.7671
2019-04-05T16:09:03.199Z,58.9319
2019-04-05T16:10:06.309Z,59.2462
2019-04-05T16:11:09.171Z,62.1637
2019-04-05T16:12:11.195Z,63.6835
2019-04-05T16:13:14.175Z,62.2278
2019-04-05T16:14:17.167Z,58.7762
2019-04-05T16:15:20.187Z,57.9522
2019-04-05T16:16:23.219Z,57.3022
2019-04-05T16:17:26.200Z,57.3739
2019-04-05T16:18:29.173Z,59.7879